createdAt,value
2023-05-25T00:00:16.250Z,18.73
2023-05-25T00:02:44.751Z,18.71
2023-05-25T00:05:11.541Z,18.70
2023-05-25T00:07:38.994Z,18.70
2023-05-25T00:10:06.920Z,18.73
2023-05-25T00:12:34.378Z,18.76
2023-05-25T00:15:01.266Z,18.74
2023-05-25T00:17:30.105Z,18.65
2023-05-25T00:19:58.195Z,18.55
2023-05-25T00:22:29.164Z,18.45
2023-05-25T00:24:56.118Z,18.39
2023-05-25T00:27:23.078Z,18.40
2023-05-25T00:29:49.756Z,18.40
2023-05-25T00:32:16.574Z,18.42
2023-05-25T00:34:43.372Z,18.38
2023-05-25T00:37:10.041Z,18.32
2023-05-25T00:39:36.727Z,18.29
2023-05-25T00:42:03.952Z,18.29
2023-05-25T00:44:32.187Z,18.23
2023-05-25T00:46:59.880Z,18.14
2023-05-25T00:49:28.372Z,18.11
2023-05-25T00:51:55.156Z,18.05
2023-05-25T00:54:22.709Z,18.00
2023-05-25T00:56:57.541Z,18.00
2023-05-25T00:59:37.011Z,17.98
2023-05-25T01:02:07.695Z,17.99
2023-05-25T01:04:38.411Z,18.02
2023-05-25T01:07:07.075Z,18.02
2023-05-25T01:09:35.529Z,17.97
2023-05-25T01:12:03.958Z,17.91
2023-05-25T01:14:32.784Z,17.84
2023-05-25T01:16:59.924Z,17.77
2023-05-25T01:19:27.020Z,17.74
2023-05-25T01:22:04.231Z,17.73
2023-05-25T01:24:46.467Z,17.70
2023-05-25T01:27:18.511Z,17.70
2023-05-25T01:29:46.808Z,17.75
2023-05-25T01:32:14.631Z,17.74
2023-05-25T01:34:43.507Z,17.75
2023-05-25T01:37:13.539Z,17.78
2023-05-25T01:39:43.784Z,17.76
2023-05-25T01:42:10.650Z,17.75
2023-05-25T01:44:38.971Z,17.77
2023-05-25T01:47:29.529Z,17.81
2023-05-25T01:50:13.561Z,17.80
2023-05-25T01:52:45.676Z,17.72
2023-05-25T01:55:15.075Z,17.63
2023-05-25T01:57:45.717Z,17.52
2023-05-25T02:00:13.551Z,17.43
2023-05-25T02:02:44.017Z,17.41
2023-05-25T02:05:11.669Z,17.42
2023-05-25T02:07:38.401Z,17.38
2023-05-25T02:10:05.574Z,17.37
2023-05-25T02:12:32.276Z,17.36
2023-05-25T02:14:58.950Z,17.34
2023-05-25T02:17:28.076Z,17.32
2023-05-25T02:19:54.965Z,17.31
2023-05-25T02:22:22.807Z,17.29
2023-05-25T02:24:49.474Z,17.30
2023-05-25T02:27:16.205Z,17.32
2023-05-25T02:29:43.163Z,17.33
2023-05-25T02:32:09.890Z,17.30
2023-05-25T02:34:36.559Z,17.24
2023-05-25T02:37:03.272Z,17.22
2023-05-25T02:39:30.008Z,17.21
2023-05-25T02:41:56.692Z,17.16
2023-05-25T02:44:23.356Z,17.13
2023-05-25T02:46:50.099Z,17.11
2023-05-25T02:49:16.890Z,17.09
2023-05-25T02:51:43.537Z,17.00
2023-05-25T02:54:10.267Z,16.95
2023-05-25T02:56:37.189Z,16.91
2023-05-25T02:59:03.975Z,16.89
2023-05-25T03:01:31.857Z,16.88
2023-05-25T03:03:58.708Z,16.84
2023-05-25T03:06:26.344Z,16.84
2023-05-25T03:08:53.231Z,16.88
2023-05-25T03:11:19.914Z,16.88
2023-05-25T03:13:46.586Z,16.83
2023-05-25T03:16:13.289Z,16.77
2023-05-25T03:18:40.052Z,16.71
2023-05-25T03:21:06.852Z,16.66
2023-05-25T03:23:33.543Z,16.63
2023-05-25T03:26:00.437Z,16.61
2023-05-25T03:28:27.174Z,16.57
2023-05-25T03:30:53.834Z,16.55
2023-05-25T03:33:20.510Z,16.51
2023-05-25T03:35:47.191Z,16.50
2023-05-25T03:38:13.909Z,16.53
2023-05-25T03:40:40.580Z,16.53
2023-05-25T03:43:07.271Z,16.55
2023-05-25T03:45:33.929Z,16.50
2023-05-25T03:48:00.958Z,16.47
2023-05-25T03:50:27.786Z,16.43
2023-05-25T03:52:54.485Z,16.41
2023-05-25T03:55:21.212Z,16.37
2023-05-25T03:57:47.875Z,16.32
2023-05-25T04:00:15.053Z,16.32
2023-05-25T04:02:41.896Z,16.29
2023-05-25T04:05:09.086Z,16.31
2023-05-25T04:07:37.126Z,16.26
2023-05-25T04:10:04.760Z,16.26
2023-05-25T04:12:32.478Z,16.22
2023-05-25T04:14:59.405Z,16.16
2023-05-25T04:17:26.195Z,16.15
2023-05-25T04:19:52.903Z,16.13
2023-05-25T04:22:19.739Z,16.15
2023-05-25T04:24:46.751Z,16.17
2023-05-25T04:27:14.451Z,16.19
2023-05-25T04:29:43.973Z,16.21
2023-05-25T04:32:10.772Z,16.17
2023-05-25T04:34:37.800Z,16.13
2023-05-25T04:37:05.730Z,16.08
2023-05-25T04:39:32.940Z,16.03
2023-05-25T04:42:01.679Z,16.03
2023-05-25T04:44:29.969Z,16.05
2023-05-25T04:46:57.016Z,16.08
2023-05-25T04:49:23.765Z,16.13
2023-05-25T04:51:51.590Z,16.13
2023-05-25T04:54:18.490Z,16.16
2023-05-25T04:56:45.303Z,16.18
2023-05-25T04:59:12.140Z,16.17
2023-05-25T05:01:41.024Z,16.15
2023-05-25T05:04:08.531Z,16.10
2023-05-25T05:06:36.583Z,16.11
2023-05-25T05:09:03.680Z,16.16
2023-05-25T05:11:30.490Z,16.19
2023-05-25T05:13:57.340Z,16.23
2023-05-25T05:16:24.023Z,16.15
2023-05-25T05:18:50.767Z,16.17
2023-05-25T05:21:17.503Z,16.21
2023-05-25T05:23:44.319Z,16.25
2023-05-25T05:26:11.809Z,16.27
2023-05-25T05:28:38.540Z,16.28
2023-05-25T05:31:05.471Z,16.27
2023-05-25T05:33:32.202Z,16.25
2023-05-25T05:36:00.090Z,16.28
2023-05-25T05:38:27.793Z,16.25
2023-05-25T05:40:54.452Z,16.23
2023-05-25T05:43:21.132Z,16.25
2023-05-25T05:45:47.803Z,16.28
2023-05-25T05:48:14.497Z,16.31
2023-05-25T05:50:42.367Z,16.35
2023-05-25T05:53:10.054Z,16.44
2023-05-25T05:55:36.932Z,16.51
2023-05-25T05:58:03.730Z,16.57
2023-05-25T06:00:30.566Z,16.62
2023-05-25T06:02:57.491Z,16.72
2023-05-25T06:05:24.336Z,16.84
2023-05-25T06:07:51.886Z,16.88
2023-05-25T06:10:18.591Z,16.98
2023-05-25T06:12:45.236Z,17.01
2023-05-25T06:15:12.041Z,17.08
2023-05-25T06:17:38.766Z,17.12
2023-05-25T06:20:06.805Z,17.13
2023-05-25T06:22:33.624Z,17.14
2023-05-25T06:25:02.379Z,17.14
2023-05-25T06:27:29.049Z,17.17
2023-05-25T06:29:55.727Z,17.19
2023-05-25T06:32:22.461Z,17.22
2023-05-25T06:34:49.189Z,17.19
2023-05-25T06:37:15.875Z,17.19
2023-05-25T06:39:43.332Z,17.13
2023-05-25T06:42:11.706Z,17.10
2023-05-25T06:44:38.436Z,17.09
2023-05-25T06:47:05.655Z,17.09
2023-05-25T06:49:32.829Z,17.12
2023-05-25T06:51:59.578Z,17.14
2023-05-25T06:54:26.840Z,17.19
2023-05-25T06:56:53.677Z,17.23
2023-05-25T06:59:20.360Z,17.22
2023-05-25T07:01:47.595Z,17.24
2023-05-25T07:04:14.517Z,17.19
2023-05-25T07:06:41.223Z,17.14
2023-05-25T07:09:07.932Z,17.14
2023-05-25T07:11:34.684Z,17.18
2023-05-25T07:14:01.601Z,17.21
2023-05-25T07:16:28.387Z,17.25
2023-05-25T07:18:55.207Z,17.29
2023-05-25T07:21:21.906Z,17.31
2023-05-25T07:23:48.651Z,17.27
2023-05-25T07:26:15.819Z,17.26
2023-05-25T07:28:42.512Z,17.32
2023-05-25T07:31:11.154Z,17.32
2023-05-25T07:33:37.828Z,17.25
2023-05-25T07:36:04.799Z,17.22
2023-05-25T07:38:31.450Z,17.23
2023-05-25T07:40:58.093Z,17.28
2023-05-25T07:43:24.962Z,17.31
2023-05-25T07:45:51.714Z,17.37
2023-05-25T07:48:18.428Z,17.39
2023-05-25T07:50:46.129Z,17.43
2023-05-25T07:53:12.849Z,17.47
2023-05-25T07:55:39.537Z,17.55
2023-05-25T07:58:07.590Z,17.59
2023-05-25T08:00:34.406Z,17.62
2023-05-25T08:03:02.604Z,17.67
2023-05-25T08:05:29.625Z,17.71
2023-05-25T08:07:56.392Z,17.77
2023-05-25T08:10:23.793Z,17.83
2023-05-25T08:12:52.271Z,17.90
2023-05-25T08:15:19.412Z,17.97
2023-05-25T08:17:46.647Z,18.04
2023-05-25T08:20:14.552Z,18.14
2023-05-25T08:22:41.309Z,18.19
2023-05-25T08:25:08.400Z,18.23
2023-05-25T08:27:36.240Z,18.25
2023-05-25T08:30:07.045Z,18.28
2023-05-25T08:32:33.950Z,18.33
2023-05-25T08:35:02.010Z,18.38
2023-05-25T08:37:29.366Z,18.42
2023-05-25T08:39:56.089Z,18.45
2023-05-25T08:42:23.936Z,18.48
2023-05-25T08:44:50.664Z,18.53
2023-05-25T08:47:17.828Z,18.58
2023-05-25T08:49:45.375Z,18.63
2023-05-25T08:52:15.011Z,18.70
2023-05-25T08:54:45.161Z,18.74
2023-05-25T08:57:24.134Z,18.73
2023-05-25T08:59:57.404Z,18.72
2023-05-25T09:02:53.574Z,18.76
2023-05-25T09:05:20.993Z,18.68
2023-05-25T09:07:48.755Z,18.50
2023-05-25T09:10:15.813Z,18.48
2023-05-25T09:12:43.791Z,18.50
2023-05-25T09:15:11.200Z,18.53
2023-05-25T09:17:38.502Z,18.59
2023-05-25T09:20:06.158Z,18.63
2023-05-25T09:22:32.921Z,18.68
2023-05-25T09:25:00.601Z,18.76
2023-05-25T09:27:27.255Z,18.84
2023-05-25T09:29:54.072Z,18.88
2023-05-25T09:32:21.166Z,18.90
2023-05-25T09:34:48.028Z,19.00
2023-05-25T09:37:19.478Z,19.09
2023-05-25T09:39:47.959Z,19.15
2023-05-25T09:42:14.807Z,19.18
2023-05-25T09:44:42.907Z,19.30
2023-05-25T09:47:10.176Z,19.36
2023-05-25T09:49:37.317Z,19.42
2023-05-25T09:52:04.221Z,19.53
2023-05-25T09:54:31.332Z,19.60
2023-05-25T09:56:58.008Z,19.62
2023-05-25T09:59:24.716Z,19.69
2023-05-25T10:01:55.049Z,19.79
2023-05-25T10:04:21.870Z,19.84
2023-05-25T10:06:52.055Z,19.88
2023-05-25T10:09:20.150Z,19.96
2023-05-25T10:11:48.238Z,20.03
2023-05-25T10:14:27.966Z,20.15
2023-05-25T10:16:57.996Z,20.19
2023-05-25T10:19:37.788Z,20.18
2023-05-25T10:22:13.164Z,20.13
2023-05-25T10:24:56.467Z,20.19
2023-05-25T10:27:27.913Z,20.19
2023-05-25T10:29:57.412Z,20.19
2023-05-25T10:32:24.966Z,20.16
2023-05-25T10:34:53.446Z,20.10
2023-05-25T10:37:20.895Z,20.22
2023-05-25T10:39:49.956Z,20.38
2023-05-25T10:42:18.694Z,20.47
2023-05-25T10:44:46.078Z,20.60
2023-05-25T10:47:13.306Z,20.57
2023-05-25T10:50:03.103Z,20.47
2023-05-25T10:52:31.754Z,20.26
2023-05-25T10:55:02.120Z,20.26
2023-05-25T10:57:29.080Z,20.40
2023-05-25T11:00:02.139Z,20.61
2023-05-25T11:02:29.655Z,20.74
2023-05-25T11:05:21.311Z,20.89
2023-05-25T11:07:57.921Z,20.93
2023-05-25T11:10:54.133Z,20.81
2023-05-25T11:13:38.744Z,20.64
2023-05-25T11:16:34.566Z,20.64
2023-05-25T11:19:01.972Z,20.69
2023-05-25T11:21:29.032Z,20.82
2023-05-25T11:24:02.853Z,20.88
2023-05-25T11:26:31.188Z,20.87
2023-05-25T11:28:59.165Z,20.80
2023-05-25T11:31:36.429Z,20.67
2023-05-25T11:34:06.078Z,20.56
2023-05-25T11:36:35.819Z,20.58
2023-05-25T11:39:13.880Z,20.61
2023-05-25T11:41:55.493Z,20.55
2023-05-25T11:44:30.365Z,20.51
2023-05-25T11:47:01.850Z,20.35
2023-05-25T11:49:28.968Z,20.22
2023-05-25T11:51:57.609Z,20.16
2023-05-25T11:54:28.631Z,20.03
2023-05-25T11:56:59.640Z,20.13
2023-05-25T11:59:29.841Z,20.34
2023-05-25T12:01:59.754Z,20.59
2023-05-25T12:04:26.618Z,20.51
2023-05-25T12:06:53.631Z,20.49
2023-05-25T12:09:24.284Z,20.71
2023-05-25T12:11:51.684Z,20.98
2023-05-25T12:14:18.610Z,21.20
2023-05-25T12:16:45.760Z,21.30
2023-05-25T12:19:13.739Z,21.30
2023-05-25T12:21:41.486Z,21.29
2023-05-25T12:24:09.911Z,21.17
2023-05-25T12:26:48.007Z,21.13
2023-05-25T12:29:15.153Z,21.33
2023-05-25T12:31:41.809Z,21.55
2023-05-25T12:34:14.318Z,21.73
2023-05-25T12:36:43.761Z,21.98
2023-05-25T12:39:12.280Z,22.15
2023-05-25T12:41:47.975Z,22.35
2023-05-25T12:44:17.668Z,22.73
2023-05-25T12:46:44.701Z,22.82
2023-05-25T12:49:31.549Z,22.92
2023-05-25T12:52:01.191Z,23.05
2023-05-25T12:54:38.459Z,22.92
2023-05-25T12:57:06.825Z,22.91
2023-05-25T12:59:35.245Z,22.92
2023-05-25T13:02:02.950Z,22.96
2023-05-25T13:04:29.749Z,23.00
2023-05-25T13:06:56.426Z,22.95
2023-05-25T13:09:29.387Z,23.03
2023-05-25T13:11:57.135Z,23.22
2023-05-25T13:14:25.179Z,23.39
2023-05-25T13:16:53.202Z,23.60
2023-05-25T13:19:22.152Z,23.70
2023-05-25T13:21:52.080Z,23.71
2023-05-25T13:24:21.942Z,23.69
2023-05-25T13:26:50.881Z,23.71
2023-05-25T13:29:18.312Z,23.83
2023-05-25T13:31:45.252Z,23.73
2023-05-25T13:34:12.149Z,23.50
2023-05-25T13:36:38.879Z,23.34
2023-05-25T13:39:05.621Z,23.25
2023-05-25T13:41:32.377Z,23.24
2023-05-25T13:43:59.300Z,23.41
2023-05-25T13:46:34.721Z,23.51
2023-05-25T13:49:03.503Z,23.65
2023-05-25T13:51:30.692Z,23.80
2023-05-25T13:53:57.420Z,23.90
2023-05-25T13:56:24.137Z,23.71
2023-05-25T13:58:50.963Z,23.51
2023-05-25T14:01:17.728Z,23.41
2023-05-25T14:03:44.648Z,23.26
2023-05-25T14:06:11.566Z,23.09
2023-05-25T14:08:38.606Z,23.07
2023-05-25T14:11:05.594Z,22.83
2023-05-25T14:13:33.544Z,22.51
2023-05-25T14:16:00.268Z,22.42
2023-05-25T14:18:27.025Z,22.57
2023-05-25T14:20:53.718Z,22.81
2023-05-25T14:23:21.122Z,23.02
2023-05-25T14:25:48.867Z,23.29
2023-05-25T14:28:15.934Z,23.65
2023-05-25T14:30:42.613Z,23.88
2023-05-25T14:33:14.178Z,24.05
2023-05-25T14:35:42.960Z,24.07
2023-05-25T14:38:10.395Z,23.74
2023-05-25T14:40:37.096Z,23.53
2023-05-25T14:43:03.957Z,23.51
2023-05-25T14:45:30.658Z,23.45
2023-05-25T14:48:08.289Z,23.61
2023-05-25T14:50:44.144Z,23.53
2023-05-25T14:53:11.071Z,23.34
2023-05-25T14:55:37.769Z,23.46
2023-05-25T14:58:04.451Z,23.52
2023-05-25T15:00:31.136Z,23.30
2023-05-25T15:02:58.215Z,23.28
2023-05-25T15:05:25.066Z,23.01
2023-05-25T15:07:51.731Z,22.85
2023-05-25T15:10:18.464Z,22.89
2023-05-25T15:12:45.144Z,22.79
2023-05-25T15:15:12.361Z,22.77
2023-05-25T15:17:39.120Z,22.75
2023-05-25T15:20:06.532Z,22.79
2023-05-25T15:22:33.230Z,23.05
2023-05-25T15:25:02.249Z,23.00
2023-05-25T15:27:29.219Z,22.75
2023-05-25T15:29:55.897Z,22.60
2023-05-25T15:32:22.544Z,22.69
2023-05-25T15:34:49.234Z,22.93
2023-05-25T15:37:15.876Z,23.08
2023-05-25T15:39:42.600Z,22.98
2023-05-25T15:42:09.335Z,22.75
2023-05-25T15:44:36.089Z,22.46
2023-05-25T15:47:02.824Z,22.19
2023-05-25T15:49:29.496Z,21.95
2023-05-25T15:51:56.161Z,21.62
2023-05-25T15:54:22.848Z,21.42
2023-05-25T15:56:49.588Z,21.16
2023-05-25T15:59:16.290Z,20.82
2023-05-25T16:01:43.020Z,20.44
2023-05-25T16:04:09.871Z,20.18
2023-05-25T16:06:36.981Z,19.99
2023-05-25T16:09:04.378Z,19.89
2023-05-25T16:11:33.120Z,19.75
2023-05-25T16:13:59.788Z,19.67
2023-05-25T16:16:26.508Z,19.62
2023-05-25T16:18:53.309Z,19.63
2023-05-25T16:21:20.060Z,19.73
2023-05-25T16:23:46.803Z,19.88
2023-05-25T16:26:13.468Z,20.01
2023-05-25T16:28:40.262Z,20.11
2023-05-25T16:31:07.345Z,20.17
2023-05-25T16:33:34.480Z,20.16
2023-05-25T16:36:01.414Z,20.15
2023-05-25T16:38:28.183Z,20.07
2023-05-25T16:40:54.919Z,20.13
2023-05-25T16:43:25.093Z,20.24
2023-05-25T16:45:52.529Z,20.26
2023-05-25T16:48:21.573Z,20.20
2023-05-25T16:50:49.824Z,20.06
2023-05-25T16:53:16.493Z,19.84
2023-05-25T16:55:43.386Z,19.61
2023-05-25T16:58:10.343Z,19.40
2023-05-25T17:00:37.000Z,19.35
2023-05-25T17:03:03.796Z,19.40
2023-05-25T17:05:30.661Z,19.39
2023-05-25T17:07:57.372Z,19.31
2023-05-25T17:10:24.084Z,19.24
2023-05-25T17:12:51.386Z,19.24
2023-05-25T17:15:18.094Z,19.30
2023-05-25T17:17:44.835Z,19.40
2023-05-25T17:20:11.874Z,19.40
2023-05-25T17:22:38.910Z,19.34
2023-05-25T17:25:06.604Z,19.27
2023-05-25T17:27:33.587Z,19.18
2023-05-25T17:30:00.392Z,19.11
2023-05-25T17:32:27.152Z,19.01
2023-05-25T17:34:53.954Z,18.97
2023-05-25T17:37:21.235Z,18.88
2023-05-25T17:39:48.057Z,18.79
2023-05-25T17:42:14.769Z,18.67
2023-05-25T17:44:42.663Z,18.57
2023-05-25T17:47:11.075Z,18.43
2023-05-25T17:49:38.116Z,18.26
2023-05-25T17:52:05.044Z,18.03
2023-05-25T17:54:31.693Z,17.79
2023-05-25T17:56:58.390Z,17.67
2023-05-25T17:59:25.168Z,17.62
2023-05-25T18:01:51.929Z,17.63
2023-05-25T18:04:19.706Z,17.70
2023-05-25T18:06:49.828Z,17.75
2023-05-25T18:09:16.925Z,17.68
2023-05-25T18:11:43.591Z,17.63
2023-05-25T18:14:10.327Z,17.53
2023-05-25T18:16:41.543Z,17.46
2023-05-25T18:19:09.564Z,17.38
2023-05-25T18:21:40.537Z,17.28
2023-05-25T18:24:08.435Z,17.11
2023-05-25T18:26:36.137Z,16.92
2023-05-25T18:29:03.144Z,16.76
2023-05-25T18:31:32.308Z,16.66
2023-05-25T18:33:59.888Z,16.58
2023-05-25T18:36:26.790Z,16.53
2023-05-25T18:38:53.444Z,16.43
2023-05-25T18:41:21.604Z,16.34
2023-05-25T18:43:49.185Z,16.27
2023-05-25T18:46:16.457Z,16.20
2023-05-25T18:48:43.233Z,16.12
2023-05-25T18:51:09.914Z,16.04
2023-05-25T18:53:36.620Z,16.00
2023-05-25T18:56:03.599Z,15.93
2023-05-25T18:58:30.256Z,15.86
2023-05-25T19:00:56.923Z,15.79
2023-05-25T19:03:23.672Z,15.72
2023-05-25T19:05:50.389Z,15.65
2023-05-25T19:08:17.070Z,15.52
2023-05-25T19:10:43.804Z,15.43
2023-05-25T19:13:10.492Z,15.36
2023-05-25T19:15:37.272Z,15.30
2023-05-25T19:18:04.523Z,15.21
2023-05-25T19:20:32.863Z,15.13
2023-05-25T19:22:59.946Z,15.09
2023-05-25T19:25:26.806Z,15.02
2023-05-25T19:27:53.718Z,14.96
2023-05-25T19:30:20.520Z,14.93
2023-05-25T19:32:47.254Z,14.87
2023-05-25T19:35:14.161Z,14.81
2023-05-25T19:37:41.348Z,14.71
2023-05-25T19:40:09.599Z,14.58
2023-05-25T19:42:36.520Z,14.48
2023-05-25T19:45:03.816Z,14.41
2023-05-25T19:47:31.521Z,14.33
2023-05-25T19:49:58.275Z,14.27
2023-05-25T19:52:24.935Z,14.28
2023-05-25T19:54:51.624Z,14.27
2023-05-25T19:57:20.111Z,14.27
2023-05-25T19:59:50.051Z,14.20
2023-05-25T20:02:17.081Z,14.12
2023-05-25T20:04:43.962Z,14.07
2023-05-25T20:07:10.778Z,14.08
2023-05-25T20:09:38.824Z,14.07
2023-05-25T20:12:06.518Z,14.03
2023-05-25T20:14:35.973Z,13.99
2023-05-25T20:17:03.022Z,13.95
2023-05-25T20:19:29.773Z,13.90
2023-05-25T20:21:57.976Z,13.89
2023-05-25T20:24:24.713Z,13.86
2023-05-25T20:26:56.963Z,13.85
2023-05-25T20:29:23.987Z,13.79
2023-05-25T20:31:50.984Z,13.75
2023-05-25T20:34:18.105Z,13.73
2023-05-25T20:36:45.085Z,13.73
2023-05-25T20:39:11.866Z,13.73
2023-05-25T20:41:38.525Z,13.72
2023-05-25T20:44:09.003Z,13.69
2023-05-25T20:46:36.201Z,13.66
2023-05-25T20:49:03.623Z,13.67
2023-05-25T20:51:31.229Z,13.67
2023-05-25T20:53:57.906Z,13.61
2023-05-25T20:56:26.933Z,13.58
2023-05-25T20:58:53.704Z,13.55
2023-05-25T21:01:20.564Z,13.55
2023-05-25T21:03:47.354Z,13.56
2023-05-25T21:06:14.481Z,13.59
2023-05-25T21:08:41.188Z,13.58
2023-05-25T21:11:07.880Z,13.57
2023-05-25T21:13:34.614Z,13.54
2023-05-25T21:16:01.356Z,13.56
2023-05-25T21:18:28.073Z,13.55
2023-05-25T21:20:54.823Z,13.53
2023-05-25T21:23:21.645Z,13.51
2023-05-25T21:25:48.669Z,13.49
2023-05-25T21:28:15.532Z,13.50
2023-05-25T21:30:42.195Z,13.52
2023-05-25T21:33:09.018Z,13.50
2023-05-25T21:35:35.710Z,13.48
2023-05-25T21:38:02.429Z,13.48
2023-05-25T21:40:29.134Z,13.52
2023-05-25T21:42:55.896Z,13.51
2023-05-25T21:45:22.565Z,13.51
2023-05-25T21:47:49.290Z,13.45
2023-05-25T21:50:16.313Z,13.41
2023-05-25T21:52:42.970Z,13.36
2023-05-25T21:55:09.894Z,13.34
2023-05-25T21:57:36.827Z,13.36
2023-05-25T22:00:06.281Z,13.36
2023-05-25T22:02:33.055Z,13.34
2023-05-25T22:04:59.743Z,13.31
2023-05-25T22:07:26.542Z,13.25
2023-05-25T22:09:53.217Z,13.23
2023-05-25T22:12:20.358Z,13.21
2023-05-25T22:14:47.083Z,13.16
2023-05-25T22:17:15.300Z,13.16
2023-05-25T22:19:44.817Z,13.11
2023-05-25T22:22:11.752Z,13.02
2023-05-25T22:24:38.414Z,13.01
2023-05-25T22:27:06.110Z,12.98
2023-05-25T22:29:32.723Z,12.95
2023-05-25T22:31:59.396Z,12.90
2023-05-25T22:34:26.106Z,12.88
2023-05-25T22:36:52.816Z,12.81
2023-05-25T22:39:19.471Z,12.81
2023-05-25T22:41:46.230Z,12.79
2023-05-25T22:44:12.887Z,12.79
2023-05-25T22:46:39.609Z,12.73
2023-05-25T22:49:06.338Z,12.70
2023-05-25T22:51:33.004Z,12.69
2023-05-25T22:53:59.660Z,12.63
2023-05-25T22:56:27.387Z,12.62
2023-05-25T22:58:54.105Z,12.60
2023-05-25T23:01:20.802Z,12.54
2023-05-25T23:03:47.515Z,12.52
2023-05-25T23:06:14.377Z,12.45
2023-05-25T23:08:41.104Z,12.46
2023-05-25T23:11:07.830Z,12.43
2023-05-25T23:13:34.470Z,12.38
2023-05-25T23:16:01.163Z,12.40
2023-05-25T23:18:27.857Z,12.42
2023-05-25T23:20:54.560Z,12.41
2023-05-25T23:23:21.570Z,12.41
2023-05-25T23:25:48.234Z,12.37
2023-05-25T23:28:14.890Z,12.36
2023-05-25T23:30:41.581Z,12.35
2023-05-25T23:33:08.559Z,12.32
2023-05-25T23:35:35.474Z,12.30
2023-05-25T23:38:02.130Z,12.30
2023-05-25T23:40:31.576Z,12.28
2023-05-25T23:42:58.316Z,12.26
2023-05-25T23:45:24.985Z,12.29
2023-05-25T23:47:51.824Z,12.29
2023-05-25T23:50:18.642Z,12.32
2023-05-25T23:52:46.385Z,12.31
2023-05-25T23:55:13.855Z,12.31
2023-05-25T23:57:40.808Z,12.27
